Time;durP1;ratioP1;P1;durP2;ratioP2;P2;SDS_P1;SDS_P2;PMS_P1;PMS_P2;Temp;Humidity;BMP_temperature;BMP_pressure;BME280_temperature;BME280_humidity;BME280_pressure;Samples;Min_cycle;Max_cycle;Signal;HPM_P1;HPM_P2
2022/05/18 00:00:15;;;;;;;;;;;;;;;20.09;63.68;101595.72;1031356;28;1653;-59
2022/05/18 00:01:44;;;;;;;;;;;;;;;20.10;64.31;101601.97;1028481;28;1219;-59
2022/05/18 00:02:34;;;;;;;;;;;;;;;20.09;63.74;101605.69;1029231;28;687;-59
2022/05/18 00:03:25;;;;;;;;;;;;;;;20.07;64.05;101603.09;1030631;28;626;-60
2022/05/18 00:04:15;;;;;;;;;;;;;;;20.08;64.14;101601.25;1029960;28;646;-59
2022/05/18 00:05:05;;;;;;;;;;;;;;;20.07;64.07;101599.53;1030723;28;618;-58
2022/05/18 00:05:56;;;;;;;;;;;;;;;20.07;63.85;101602.25;1029870;28;646;-59
2022/05/18 00:06:46;;;;;;;;;;;;;;;20.08;64.17;101598.56;1030418;28;623;-59
2022/05/18 00:07:37;;;;;;;;;;;;;;;20.06;64.14;101595.16;1029281;28;678;-59
2022/05/18 00:08:27;;;;;;;;;;;;;;;20.06;64.07;101596.00;1029957;28;669;-59
2022/05/18 00:09:17;;;;;;;;;;;;;;;20.06;63.77;101600.56;1030669;28;682;-59
2022/05/18 00:10:08;;;;;;;;;;;;;;;20.07;63.99;101603.09;1029557;28;615;-59
2022/05/18 00:10:58;;;;;;;;;;;;;;;20.06;63.81;101601.41;1030842;28;681;-59
2022/05/18 00:11:49;;;;;;;;;;;;;;;20.07;64.09;101602.25;1030627;28;700;-59
2022/05/18 00:12:39;;;;;;;;;;;;;;;20.07;64.28;101602.25;1026519;28;1025;-60
2022/05/18 00:13:30;;;;;;;;;;;;;;;20.05;63.94;101604.28;1025609;29;1160;-59
2022/05/18 00:14:20;;;;;;;;;;;;;;;20.03;64.30;101601.72;1025485;29;1045;-59
2022/05/18 00:15:11;;;;;;;;;;;;;;;20.05;64.07;101601.56;1028236;28;1160;-59
2022/05/18 00:16:01;;;;;;;;;;;;;;;20.03;63.50;101601.72;1029251;28;1049;-59
2022/05/18 00:16:51;;;;;;;;;;;;;;;20.03;64.13;101607.13;1027788;28;1144;-59
2022/05/18 00:17:42;;;;;;;;;;;;;;;20.04;63.60;101607.97;1027166;28;1128;-59
2022/05/18 00:18:32;;;;;;;;;;;;;;;20.03;64.10;101600.84;1028810;28;989;-59
2022/05/18 00:19:23;;;;;;;;;;;;;;;20.03;63.77;101600.84;1027811;28;1061;-58
2022/05/18 00:20:13;;;;;;;;;;;;;;;20.03;63.56;101606.28;1028690;28;1476;-58
2022/05/18 00:21:04;;;;;;;;;;;;;;;20.02;64.30;101601.84;1027768;28;1077;-59
2022/05/18 00:21:54;;;;;;;;;;;;;;;20.02;64.05;101601.84;1024196;28;1967;-58
2022/05/18 00:22:44;;;;;;;;;;;;;;;20.03;63.82;101614.38;1025610;28;1210;-59
2022/05/18 00:23:35;;;;;;;;;;;;;;;20.03;64.25;101606.28;1027372;28;1116;-59
2022/05/18 00:24:25;;;;;;;;;;;;;;;20.01;64.02;101608.25;1029663;28;1119;-59
2022/05/18 00:25:16;;;;;;;;;;;;;;;20.01;63.88;101611.81;1029102;28;974;-58
2022/05/18 00:26:06;;;;;;;;;;;;;;;20.01;64.08;101610.97;1029228;28;1140;-59
2022/05/18 00:26:58;;;;;;;;;;;;;;;20.01;63.92;101613.66;1031684;28;1108;-60
2022/05/18 00:27:48;;;;;;;;;;;;;;;20.01;63.81;101608.25;1029551;28;1065;-60
2022/05/18 00:28:39;;;;;;;;;;;;;;;20.01;63.62;101613.66;1028343;28;1124;-60
2022/05/18 00:29:29;;;;;;;;;;;;;;;20.00;63.65;101612.81;1029463;28;1040;-60
2022/05/18 00:30:20;;;;;;;;;;;;;;;19.99;63.77;101610.25;1028943;28;1152;-60
2022/05/18 00:31:10;;;;;;;;;;;;;;;20.00;63.79;101603.84;1029182;28;1053;-60
2022/05/18 00:32:00;;;;;;;;;;;;;;;19.99;64.14;101607.53;1028001;28;1065;-60
2022/05/18 00:32:51;;;;;;;;;;;;;;;19.98;63.99;101605.81;1029022;28;1291;-59
2022/05/18 00:33:41;;;;;;;;;;;;;;;19.99;64.00;101610.25;1030456;28;670;-59
2022/05/18 00:34:32;;;;;;;;;;;;;;;19.98;64.00;101612.09;1030091;28;876;-60
2022/05/18 00:35:25;;;;;;;;;;;;;;;19.98;64.11;101616.66;1028634;28;698;-60
2022/05/18 00:36:15;;;;;;;;;;;;;;;19.98;63.61;101611.25;1026792;28;646;-59
2022/05/18 00:37:06;;;;;;;;;;;;;;;19.97;64.20;101613.09;1024179;29;648;-60
2022/05/18 00:37:57;;;;;;;;;;;;;;;19.97;63.54;101612.22;1027619;28;679;-59
2022/05/18 00:38:47;;;;;;;;;;;;;;;19.97;63.46;101617.66;1029379;28;643;-59
2022/05/18 00:39:37;;;;;;;;;;;;;;;19.97;63.82;101614.94;1029249;28;760;-61
2022/05/18 00:40:28;;;;;;;;;;;;;;;19.97;64.05;101612.22;1029435;28;718;-59
2022/05/18 00:41:19;;;;;;;;;;;;;;;19.96;63.82;101619.50;1029324;28;632;-60
2022/05/18 00:42:10;;;;;;;;;;;;;;;19.96;63.58;101615.94;1029890;28;1898;-60
2022/05/18 00:43:00;;;;;;;;;;;;;;;19.95;63.86;101615.06;1029384;28;714;-60
2022/05/18 00:43:51;;;;;;;;;;;;;;;19.95;64.08;101614.22;1029281;28;671;-60
2022/05/18 00:44:41;;;;;;;;;;;;;;;19.95;63.52;101622.34;1030278;28;667;-60
2022/05/18 00:45:32;;;;;;;;;;;;;;;19.95;63.98;101619.63;1029438;28;773;-61
2022/05/18 00:46:22;;;;;;;;;;;;;;;19.95;64.08;101614.22;1029441;28;678;-61
2022/05/18 00:47:12;;;;;;;;;;;;;;;19.94;63.87;101613.38;1029418;28;620;-63
2022/05/18 00:48:03;;;;;;;;;;;;;;;19.93;64.12;101616.22;1029268;28;710;-59
2022/05/18 00:48:53;;;;;;;;;;;;;;;19.94;63.58;101623.34;1029919;28;870;-59
2022/05/18 00:49:45;;;;;;;;;;;;;;;19.94;64.01;101618.78;1029398;28;654;-58
2022/05/18 00:50:35;;;;;;;;;;;;;;;19.93;63.84;101616.22;1026838;28;1032;-63
2022/05/18 00:51:25;;;;;;;;;;;;;;;19.93;63.98;101619.78;1027196;28;633;-59
2022/05/18 00:52:16;;;;;;;;;;;;;;;19.92;64.41;101623.47;1030878;28;667;-59
2022/05/18 00:53:06;;;;;;;;;;;;;;;19.93;64.31;101614.38;1031630;28;623;-58
2022/05/18 00:53:57;;;;;;;;;;;;;;;19.92;63.76;101615.34;1031644;28;682;-58
2022/05/18 00:54:47;;;;;;;;;;;;;;;19.92;63.86;101628.03;1032880;28;643;-59
2022/05/18 00:55:37;;;;;;;;;;;;;;;19.91;63.85;101623.63;1030918;28;651;-59
2022/05/18 00:56:28;;;;;;;;;;;;;;;19.91;63.99;101629.03;1029242;28;706;-60
2022/05/18 00:57:18;;;;;;;;;;;;;;;19.91;64.03;101627.16;1029537;28;789;-59
2022/05/18 00:58:09;;;;;;;;;;;;;;;19.91;64.15;101624.47;1028927;28;725;-60
2022/05/18 00:58:59;;;;;;;;;;;;;;;19.91;64.19;101629.03;1029270;28;647;-60
2022/05/18 00:59:49;;;;;;;;;;;;;;;19.91;64.10;101626.31;1029422;28;662;-60
2022/05/18 01:00:40;;;;;;;;;;;;;;;19.91;63.83;101620.91;1028789;28;659;-59
2022/05/18 01:01:30;;;;;;;;;;;;;;;19.91;63.68;101620.91;1023018;29;1318;-59
2022/05/18 01:02:21;;;;;;;;;;;;;;;19.90;63.84;101625.47;1024780;29;1910;-60
2022/05/18 01:03:11;;;;;;;;;;;;;;;19.90;64.07;101627.31;1029620;28;650;-60
2022/05/18 01:04:02;;;;;;;;;;;;;;;19.91;63.98;101627.16;1028874;28;631;-59
2022/05/18 01:04:52;;;;;;;;;;;;;;;19.89;63.86;101626.44;1028644;28;632;-60
2022/05/18 01:05:43;;;;;;;;;;;;;;;19.89;63.89;101631.88;1028774;28;706;-59
2022/05/18 01:06:33;;;;;;;;;;;;;;;19.90;64.00;101627.31;1029268;28;612;-59
2022/05/18 01:07:23;;;;;;;;;;;;;;;19.88;64.01;101624.78;1023381;29;687;-59
2022/05/18 01:08:14;;;;;;;;;;;;;;;19.89;64.33;101631.00;1024992;29;718;-59
2022/05/18 01:09:04;;;;;;;;;;;;;;;19.88;64.26;101629.31;1029136;28;670;-59
2022/05/18 01:09:55;;;;;;;;;;;;;;;19.89;64.12;101628.31;1027270;28;690;-59
2022/05/18 01:10:45;;;;;;;;;;;;;;;19.88;63.48;101623.91;1023068;29;667;-59
2022/05/18 01:11:36;;;;;;;;;;;;;;;19.87;64.28;101628.47;1024782;29;695;-59
2022/05/18 01:12:26;;;;;;;;;;;;;;;19.88;63.88;101632.03;1028805;28;721;-59
2022/05/18 01:13:16;;;;;;;;;;;;;;;19.87;64.11;101631.19;1028673;28;640;-59
2022/05/18 01:14:07;;;;;;;;;;;;;;;19.87;63.82;101630.31;1027243;28;664;-58
2022/05/18 01:14:57;;;;;;;;;;;;;;;19.87;63.52;101628.47;1022731;29;718;-60
2022/05/18 01:15:48;;;;;;;;;;;;;;;19.86;63.57;101632.16;1024872;29;639;-59
2022/05/18 01:16:38;;;;;;;;;;;;;;;19.87;64.07;101627.63;1028520;28;628;-59
2022/05/18 01:17:28;;;;;;;;;;;;;;;19.86;64.01;101634.03;1028712;28;764;-59
2022/05/18 01:18:19;;;;;;;;;;;;;;;19.86;63.53;101631.31;1023429;29;624;-59
2022/05/18 01:19:09;;;;;;;;;;;;;;;19.86;63.96;101628.63;1024975;29;627;-59
2022/05/18 01:20:00;;;;;;;;;;;;;;;19.85;64.22;101632.31;1028460;28;1778;-59
2022/05/18 01:20:51;;;;;;;;;;;;;;;19.86;63.83;101628.63;1029277;28;620;-59
2022/05/18 01:21:41;;;;;;;;;;;;;;;19.85;64.05;101624.19;1032774;28;685;-59
2022/05/18 01:22:32;;;;;;;;;;;;;;;19.85;64.25;101630.47;1032852;28;643;-59
2022/05/18 01:23:22;;;;;;;;;;;;;;;19.84;64.15;101626.03;1029286;28;706;-59
2022/05/18 01:24:12;;;;;;;;;;;;;;;19.84;64.42;101631.44;1029140;28;622;-58
2022/05/18 01:25:03;;;;;;;;;;;;;;;19.84;63.94;101627.91;1029289;28;644;-58
2022/05/18 01:25:53;;;;;;;;;;;;;;;19.84;64.13;101628.75;1029166;28;671;-59
2022/05/18 01:26:44;;;;;;;;;;;;;;;19.83;63.72;101626.19;1029016;28;770;-59
2022/05/18 01:27:34;;;;;;;;;;;;;;;19.83;64.28;101634.28;1029125;28;629;-59
2022/05/18 01:28:24;;;;;;;;;;;;;;;19.83;63.97;101628.88;1029047;28;654;-59
2022/05/18 01:29:15;;;;;;;;;;;;;;;19.82;63.97;101625.31;1028786;28;702;-59
2022/05/18 01:30:05;;;;;;;;;;;;;;;19.82;63.94;101630.72;1029168;28;814;-59
2022/05/18 01:30:56;;;;;;;;;;;;;;;19.82;64.05;101619.91;1029117;28;703;-59
2022/05/18 01:31:46;;;;;;;;;;;;;;;19.82;64.46;101624.47;1029080;28;651;-59
2022/05/18 01:32:37;;;;;;;;;;;;;;;19.81;63.78;101625.47;1032782;28;694;-59
2022/05/18 01:33:27;;;;;;;;;;;;;;;19.81;64.10;101622.75;1032944;28;717;-59
2022/05/18 01:34:17;;;;;;;;;;;;;;;19.81;63.69;101628.16;1025530;28;649;-59
2022/05/18 01:35:08;;;;;;;;;;;;;;;19.80;64.26;101627.31;1025213;28;718;-59
2022/05/18 01:35:58;;;;;;;;;;;;;;;19.80;63.63;101626.47;1029587;28;628;-59
2022/05/18 01:36:49;;;;;;;;;;;;;;;19.81;64.09;101625.47;1029070;28;639;-59
2022/05/18 01:37:39;;;;;;;;;;;;;;;19.80;64.25;101626.47;1028400;28;687;-58
2022/05/18 01:38:31;;;;;;;;;;;;;;;19.79;63.69;101630.16;1029080;28;706;-62
2022/05/18 01:39:21;;;;;;;;;;;;;;;19.79;64.31;101625.59;1028133;28;683;-59
2022/05/18 01:40:12;;;;;;;;;;;;;;;19.79;64.29;101627.44;1029173;28;659;-59
2022/05/18 01:41:02;;;;;;;;;;;;;;;19.80;64.06;101621.03;1029063;28;719;-58
2022/05/18 01:41:53;;;;;;;;;;;;;;;19.79;64.00;101624.75;1029141;28;652;-59
2022/05/18 01:42:43;;;;;;;;;;;;;;;19.77;64.05;101623.03;1032697;28;709;-59
2022/05/18 01:43:34;;;;;;;;;;;;;;;19.77;64.44;101623.03;1032744;28;729;-59
2022/05/18 01:44:24;;;;;;;;;;;;;;;19.77;63.97;101627.59;1028670;28;608;-59
2022/05/18 01:45:15;;;;;;;;;;;;;;;19.77;63.89;101619.47;1029015;28;697;-59
2022/05/18 01:46:05;;;;;;;;;;;;;;;19.76;63.63;101618.63;1029114;28;644;-59
2022/05/18 01:46:56;;;;;;;;;;;;;;;19.76;63.78;101621.31;1028785;28;628;-59
2022/05/18 01:47:48;;;;;;;;;;;;;;;19.76;64.09;101621.31;1028722;28;1714;-60
2022/05/18 01:48:38;;;;;;;;;;;;;;;19.76;64.20;101626.72;1027897;28;619;-59
2022/05/18 01:49:29;;;;;;;;;;;;;;;19.76;64.11;101621.31;1029055;28;682;-59
2022/05/18 01:50:19;;;;;;;;;;;;;;;19.76;63.84;101623.16;1028488;28;818;-58
2022/05/18 01:51:10;;;;;;;;;;;;;;;19.75;64.46;101624.16;1025787;28;644;-59
2022/05/18 01:52:00;;;;;;;;;;;;;;;19.75;64.51;101625.03;1026665;28;801;-59
2022/05/18 01:52:51;;;;;;;;;;;;;;;19.73;64.34;101627.00;1025903;28;699;-59
2022/05/18 01:53:41;;;;;;;;;;;;;;;19.74;64.08;101628.72;1026254;28;662;-59
2022/05/18 01:54:31;;;;;;;;;;;;;;;19.74;63.95;101623.31;1025366;28;651;-59
2022/05/18 01:55:23;;;;;;;;;;;;;;;19.73;63.91;101621.59;1025199;28;757;-59
2022/05/18 01:56:13;;;;;;;;;;;;;;;19.73;64.07;101613.47;1024099;29;682;-59
2022/05/18 01:57:04;;;;;;;;;;;;;;;19.73;63.81;101623.44;1024873;29;675;-60
2022/05/18 01:57:54;;;;;;;;;;;;;;;19.74;63.83;101622.44;1025507;28;686;-60
2022/05/18 01:58:46;;;;;;;;;;;;;;;19.73;64.43;101616.19;1025601;28;686;-59
2022/05/18 01:59:36;;;;;;;;;;;;;;;19.73;64.46;101621.59;1025580;28;649;-59
2022/05/18 02:00:26;;;;;;;;;;;;;;;19.72;64.04;101614.47;1025562;28;678;-60
2022/05/18 02:01:17;;;;;;;;;;;;;;;19.72;63.93;101625.28;1025616;28;1125;-60
2022/05/18 02:02:12;;;;;;;;;;;;;;;19.73;64.22;101623.44;1026118;28;1969;-59
2022/05/18 02:03:03;;;;;;;;;;;;;;;19.72;64.23;101619.88;1025607;28;670;-59
2022/05/18 02:03:53;;;;;;;;;;;;;;;19.73;64.41;101616.19;1026793;28;782;-59
2022/05/18 02:04:44;;;;;;;;;;;;;;;19.72;64.02;101602.81;1026801;28;642;-60
2022/05/18 02:05:34;;;;;;;;;;;;;;;19.72;63.89;101609.06;1031183;28;792;-59
2022/05/18 02:06:24;;;;;;;;;;;;;;;19.72;64.48;101613.63;1029746;28;694;-59
2022/05/18 02:07:15;;;;;;;;;;;;;;;19.72;63.86;101613.63;1026725;28;866;-62
2022/05/18 02:08:06;;;;;;;;;;;;;;;19.71;64.40;101604.66;1028980;28;634;-59
2022/05/18 02:08:57;;;;;;;;;;;;;;;19.72;64.16;101610.91;1025662;28;658;-59
2022/05/18 02:09:47;;;;;;;;;;;;;;;19.71;64.37;101607.34;1025762;28;681;-58
2022/05/18 02:10:37;;;;;;;;;;;;;;;19.70;64.42;101612.94;1025736;28;717;-58
2022/05/18 02:11:28;;;;;;;;;;;;;;;19.71;64.36;101611.91;1026191;28;693;-58
2022/05/18 02:12:18;;;;;;;;;;;;;;;19.71;63.89;101611.91;1025683;28;643;-59
2022/05/18 02:13:10;;;;;;;;;;;;;;;19.70;64.36;101608.38;1025085;29;690;-59
2022/05/18 02:14:00;;;;;;;;;;;;;;;19.70;63.74;101605.69;1025631;28;603;-58
2022/05/18 02:14:51;;;;;;;;;;;;;;;19.70;63.86;101616.50;1025607;28;674;-58
2022/05/18 02:15:41;;;;;;;;;;;;;;;19.70;64.03;101604.81;1025548;28;738;-59
2022/05/18 02:16:32;;;;;;;;;;;;;;;19.69;64.59;101606.66;1025601;28;1030;-59
2022/05/18 02:17:23;;;;;;;;;;;;;;;19.70;64.31;101611.09;1025708;28;1656;-59
2022/05/18 02:18:13;;;;;;;;;;;;;;;19.69;64.17;101603.97;1024751;28;1493;-59
2022/05/18 02:19:04;;;;;;;;;;;;;;;19.68;63.81;101607.66;1029495;28;682;-59
2022/05/18 02:19:55;;;;;;;;;;;;;;;19.68;64.36;101602.25;1027781;28;635;-59
2022/05/18 02:20:46;;;;;;;;;;;;;;;19.67;64.43;101605.94;1027910;28;683;-59
2022/05/18 02:21:36;;;;;;;;;;;;;;;19.67;64.55;101605.94;1027725;28;635;-60
2022/05/18 02:22:27;;;;;;;;;;;;;;;19.67;63.85;101605.94;1029534;28;678;-59
2022/05/18 02:23:17;;;;;;;;;;;;;;;19.67;64.50;101596.97;1029627;28;611;-59
2022/05/18 02:24:08;;;;;;;;;;;;;;;19.67;64.37;101599.69;1029506;28;592;-59
2022/05/18 02:24:58;;;;;;;;;;;;;;;19.66;64.19;101598.84;1029936;28;650;-59
2022/05/18 02:25:48;;;;;;;;;;;;;;;19.66;64.32;101593.44;1027727;28;644;-59
2022/05/18 02:26:39;;;;;;;;;;;;;;;19.66;64.46;101598.84;1029487;28;682;-59
2022/05/18 02:27:29;;;;;;;;;;;;;;;19.66;64.53;101596.13;1029141;28;746;-59
2022/05/18 02:28:20;;;;;;;;;;;;;;;19.66;63.68;101598.84;1027903;28;639;-59
2022/05/18 02:29:10;;;;;;;;;;;;;;;19.66;64.33;101598.84;1027923;28;656;-59
2022/05/18 02:30:01;;;;;;;;;;;;;;;19.65;64.47;101599.81;1029594;28;674;-58
2022/05/18 02:30:52;;;;;;;;;;;;;;;19.66;64.46;101606.09;1027717;28;623;-59
2022/05/18 02:31:42;;;;;;;;;;;;;;;19.65;64.12;101597.13;1025639;28;697;-59
2022/05/18 02:32:32;;;;;;;;;;;;;;;19.65;64.43;101596.25;1024176;29;682;-59
2022/05/18 02:33:23;;;;;;;;;;;;;;;19.65;63.87;101596.25;1029431;28;709;-59
2022/05/18 02:34:14;;;;;;;;;;;;;;;19.64;64.13;101600.81;1029545;28;650;-59
2022/05/18 02:35:05;;;;;;;;;;;;;;;19.64;64.55;101591.84;1027765;28;682;-59
2022/05/18 02:35:56;;;;;;;;;;;;;;;19.64;64.24;101599.97;1029336;28;642;-60
2022/05/18 02:36:46;;;;;;;;;;;;;;;19.63;63.77;101599.09;1029441;28;725;-59
2022/05/18 02:37:36;;;;;;;;;;;;;;;19.63;64.49;101604.50;1027767;28;608;-59
2022/05/18 02:38:27;;;;;;;;;;;;;;;19.62;63.98;101597.41;1030062;28;627;-58
2022/05/18 02:39:20;;;;;;;;;;;;;;;19.62;64.07;101602.81;1028894;28;663;-58
2022/05/18 02:40:11;;;;;;;;;;;;;;;19.61;63.92;101603.78;1029507;28;635;-59
2022/05/18 02:41:01;;;;;;;;;;;;;;;19.63;64.20;101593.69;1029956;28;709;-60
2022/05/18 02:41:51;;;;;;;;;;;;;;;19.62;64.17;101594.69;1024857;28;623;-58
2022/05/18 02:42:42;;;;;;;;;;;;;;;19.61;64.19;101594.81;1025681;28;656;-58
2022/05/18 02:43:37;;;;;;;;;;;;;;;19.61;63.76;101590.28;1024575;28;670;-58
2022/05/18 02:44:27;;;;;;;;;;;;;;;19.61;64.22;101595.69;1024614;28;698;-58
2022/05/18 02:45:18;;;;;;;;;;;;;;;19.61;63.76;101594.81;1028772;28;666;-59
2022/05/18 02:46:08;;;;;;;;;;;;;;;19.61;64.27;101601.09;1027664;28;600;-58
2022/05/18 02:46:59;;;;;;;;;;;;;;;19.60;64.05;101599.38;1027846;28;612;-59
2022/05/18 02:47:50;;;;;;;;;;;;;;;19.61;64.34;101602.94;1025420;28;678;-59
2022/05/18 02:48:41;;;;;;;;;;;;;;;19.60;64.08;101604.78;1021790;28;702;-59
2022/05/18 02:49:34;;;;;;;;;;;;;;;19.59;63.76;101604.94;1025041;28;1632;-59
2022/05/18 02:50:26;;;;;;;;;;;;;;;19.59;63.92;101597.66;1028302;28;681;-59
2022/05/18 02:51:16;;;;;;;;;;;;;;;19.59;63.80;101600.38;1021642;28;675;-59
2022/05/18 02:52:07;;;;;;;;;;;;;;;19.59;64.10;101594.97;1021157;29;625;-59
2022/05/18 02:52:57;;;;;;;;;;;;;;;19.60;63.82;101603.94;1020566;29;861;-59
2022/05/18 02:53:47;;;;;;;;;;;;;;;19.60;64.05;101593.13;1021785;28;757;-59
2022/05/18 02:56:05;;;;;;;;;;;;;;;19.59;64.20;101600.38;1024872;28;652;-60
2022/05/18 02:56:56;;;;;;;;;;;;;;;19.58;64.55;101595.97;1025869;28;654;-59
2022/05/18 02:57:46;;;;;;;;;;;;;;;19.58;63.80;101601.38;1021838;28;733;-59
2022/05/18 02:58:37;;;;;;;;;;;;;;;19.58;64.48;101600.50;1021254;28;625;-59
2022/05/18 02:59:27;;;;;;;;;;;;;;;19.57;64.23;101598.78;1025244;28;662;-59
2022/05/18 03:00:18;;;;;;;;;;;;;;;19.58;64.58;101601.38;1025443;28;873;-59
2022/05/18 03:01:08;;;;;;;;;;;;;;;19.57;64.32;101594.25;1023703;29;675;-60
2022/05/18 03:01:59;;;;;;;;;;;;;;;19.58;64.15;101597.81;1023807;29;846;-59
2022/05/18 03:02:50;;;;;;;;;;;;;;;19.58;64.04;101600.50;1025933;28;1032;-59
2022/05/18 03:03:40;;;;;;;;;;;;;;;19.57;63.81;101599.66;1025503;28;728;-59
2022/05/18 03:04:31;;;;;;;;;;;;;;;19.57;63.73;101594.25;1023857;29;727;-59
2022/05/18 03:05:21;;;;;;;;;;;;;;;19.58;64.20;101600.50;1023806;29;636;-59
2022/05/18 03:06:11;;;;;;;;;;;;;;;19.57;64.04;101605.06;1023761;29;631;-58
2022/05/18 03:07:02;;;;;;;;;;;;;;;19.58;64.31;101604.06;1023751;29;655;-58
2022/05/18 03:07:53;;;;;;;;;;;;;;;19.57;64.14;101602.34;1023682;29;648;-58
2022/05/18 03:08:43;;;;;;;;;;;;;;;19.57;64.49;101604.19;1025470;28;611;-58
2022/05/18 03:09:34;;;;;;;;;;;;;;;19.56;64.39;101597.94;1023663;29;675;-58
2022/05/18 03:10:24;;;;;;;;;;;;;;;19.55;64.18;101601.63;1025474;28;627;-58
2022/05/18 03:11:15;;;;;;;;;;;;;;;19.55;63.83;101596.22;1023699;29;612;-59
2022/05/18 03:12:05;;;;;;;;;;;;;;;19.55;63.76;101590.81;1023926;29;717;-59
2022/05/18 03:12:56;;;;;;;;;;;;;;;19.56;63.81;101603.34;1023708;29;706;-59
2022/05/18 03:13:46;;;;;;;;;;;;;;;19.55;63.84;101601.63;1025735;28;645;-59
2022/05/18 03:14:37;;;;;;;;;;;;;;;19.55;64.01;101598.94;1025535;28;639;-59
2022/05/18 03:15:27;;;;;;;;;;;;;;;19.56;64.40;101610.59;1027199;28;647;-59
2022/05/18 03:16:17;;;;;;;;;;;;;;;19.54;63.72;101608.03;1029396;28;793;-60
2022/05/18 03:17:08;;;;;;;;;;;;;;;19.54;63.84;101605.34;1030151;28;590;-59
2022/05/18 03:17:58;;;;;;;;;;;;;;;19.54;63.84;101601.78;1025558;29;753;-59
2022/05/18 03:18:49;;;;;;;;;;;;;;;19.53;63.54;101606.31;1026017;28;627;-59
2022/05/18 03:19:39;;;;;;;;;;;;;;;19.53;64.04;101603.63;1024347;29;646;-59
2022/05/18 03:23:57;;;;;;;;;;;;;;;19.53;63.83;101619.00;1025395;28;694;-58
2022/05/18 03:24:49;;;;;;;;;;;;;;;19.51;64.06;101611.03;1023940;29;703;-60
2022/05/18 03:25:40;;;;;;;;;;;;;;;19.52;64.29;101617.31;1025605;28;1643;-59
2022/05/18 03:26:31;;;;;;;;;;;;;;;19.53;63.77;101619.00;1023944;29;660;-59
2022/05/18 03:27:21;;;;;;;;;;;;;;;19.52;64.12;101623.56;1025422;28;694;-58
2022/05/18 03:28:12;;;;;;;;;;;;;;;19.52;64.37;101617.31;1025312;28;671;-59
2022/05/18 03:29:02;;;;;;;;;;;;;;;19.52;63.88;101620.88;1025425;28;733;-59
2022/05/18 03:29:52;;;;;;;;;;;;;;;19.52;64.18;101618.16;1025329;28;706;-59
2022/05/18 03:30:43;;;;;;;;;;;;;;;19.51;64.37;101627.28;1025342;28;834;-58
2022/05/18 03:31:33;;;;;;;;;;;;;;;19.51;64.27;101629.97;1025350;28;646;-58
2022/05/18 03:32:24;;;;;;;;;;;;;;;19.51;63.94;101629.97;1025268;28;706;-61
2022/05/18 03:33:14;;;;;;;;;;;;;;;19.51;63.96;101634.53;1025353;28;687;-58
2022/05/18 03:34:04;;;;;;;;;;;;;;;19.51;64.34;101626.41;1025269;28;942;-59
2022/05/18 03:34:55;;;;;;;;;;;;;;;19.51;64.45;101626.41;1025299;28;718;-59
2022/05/18 03:35:45;;;;;;;;;;;;;;;19.51;64.22;101629.13;1025653;28;631;-59
2022/05/18 03:36:36;;;;;;;;;;;;;;;19.51;64.05;101631.81;1025491;28;706;-58
2022/05/18 03:37:26;;;;;;;;;;;;;;;19.50;63.97;101628.25;1025446;28;631;-58
2022/05/18 03:38:17;;;;;;;;;;;;;;;19.50;64.51;101625.56;1026910;28;635;-59
2022/05/18 03:39:09;;;;;;;;;;;;;;;19.50;64.47;101628.25;1026399;28;694;-59
2022/05/18 03:39:59;;;;;;;;;;;;;;;19.50;63.79;101625.56;1029112;28;690;-60
2022/05/18 03:40:50;;;;;;;;;;;;;;;19.50;64.55;101625.56;1028566;28;647;-59
2022/05/18 03:41:41;;;;;;;;;;;;;;;19.51;64.33;101631.81;1025762;28;766;-59
2022/05/18 03:42:31;;;;;;;;;;;;;;;19.50;64.34;101630.97;1026326;28;816;-58
2022/05/18 03:43:21;;;;;;;;;;;;;;;19.49;63.66;101622.97;1026332;28;690;-58
2022/05/18 03:44:12;;;;;;;;;;;;;;;19.50;64.03;101633.66;1025422;28;690;-58
2022/05/18 03:45:02;;;;;;;;;;;;;;;19.49;63.74;101629.22;1025336;28;702;-58
2022/05/18 03:45:53;;;;;;;;;;;;;;;19.50;64.21;101630.09;1026203;28;639;-60
2022/05/18 03:46:44;;;;;;;;;;;;;;;19.49;64.66;101626.50;1026400;28;701;-61
2022/05/18 03:47:35;;;;;;;;;;;;;;;19.50;64.09;101627.41;1029019;28;1638;-59
2022/05/18 03:48:25;;;;;;;;;;;;;;;19.49;63.65;101631.91;1030005;28;641;-59
2022/05/18 03:49:16;;;;;;;;;;;;;;;19.49;63.68;101626.50;1028391;28;1640;-59
2022/05/18 03:50:06;;;;;;;;;;;;;;;19.50;64.24;101628.25;1027894;28;635;-59
2022/05/18 03:50:57;;;;;;;;;;;;;;;19.49;64.20;101629.22;1027734;28;1131;-59
2022/05/18 03:51:47;;;;;;;;;;;;;;;19.50;64.06;101628.25;1029791;28;696;-60
2022/05/18 03:52:38;;;;;;;;;;;;;;;19.50;64.14;101630.97;1029543;28;579;-58
2022/05/18 03:53:28;;;;;;;;;;;;;;;19.49;64.12;101623.81;1029438;28;654;-58
2022/05/18 03:54:19;;;;;;;;;;;;;;;19.49;64.46;101626.50;1030512;28;638;-58
2022/05/18 03:55:09;;;;;;;;;;;;;;;19.49;63.97;101631.91;1030670;28;642;-58
2022/05/18 03:55:59;;;;;;;;;;;;;;;19.49;64.25;101625.66;1029574;28;595;-58
2022/05/18 03:56:50;;;;;;;;;;;;;;;19.49;64.18;101634.63;1029894;28;662;-58
2022/05/18 03:57:40;;;;;;;;;;;;;;;19.50;64.15;101632.81;1029357;28;654;-58
2022/05/18 03:58:32;;;;;;;;;;;;;;;19.49;64.47;101634.63;1027859;28;706;-58
2022/05/18 03:59:24;;;;;;;;;;;;;;;19.50;64.35;101630.97;1025034;28;646;-57
2022/05/18 04:00:14;;;;;;;;;;;;;;;19.51;63.99;101626.41;1029382;28;623;-58
2022/05/18 04:01:08;;;;;;;;;;;;;;;19.49;64.21;101634.63;1029257;28;651;-58
2022/05/18 04:01:58;;;;;;;;;;;;;;;19.50;63.90;101639.06;1029131;28;1183;-57
2022/05/18 04:02:49;;;;;;;;;;;;;;;19.50;63.94;101635.50;1028237;28;688;-58
2022/05/18 04:03:39;;;;;;;;;;;;;;;19.50;64.17;101641.78;1027997;28;643;-58
2022/05/18 04:04:30;;;;;;;;;;;;;;;19.50;63.90;101636.38;1028286;28;673;-58
2022/05/18 04:05:20;;;;;;;;;;;;;;;19.50;63.90;101636.38;1028605;28;718;-58
2022/05/18 04:06:11;;;;;;;;;;;;;;;19.50;63.81;101635.50;1022789;29;695;-58
2022/05/18 04:07:01;;;;;;;;;;;;;;;19.49;63.68;101644.59;1024918;28;653;-58
2022/05/18 04:07:52;;;;;;;;;;;;;;;19.50;64.22;101640.91;1024287;29;628;-58
2022/05/18 04:08:42;;;;;;;;;;;;;;;19.49;63.99;101645.44;1028248;28;706;-58
2022/05/18 04:09:32;;;;;;;;;;;;;;;19.49;64.32;101645.44;1028001;28;678;-58
2022/05/18 04:10:23;;;;;;;;;;;;;;;19.50;63.73;101644.47;1027311;28;628;-58
2022/05/18 04:11:13;;;;;;;;;;;;;;;19.50;64.33;101644.47;1029032;28;682;-58
2022/05/18 04:12:04;;;;;;;;;;;;;;;19.50;63.74;101646.31;1023470;29;680;-58
2022/05/18 04:12:54;;;;;;;;;;;;;;;19.50;63.92;101649.88;1025263;29;651;-58
2022/05/18 04:13:45;;;;;;;;;;;;;;;19.49;63.83;101642.72;1028197;28;580;-58
2022/05/18 04:14:35;;;;;;;;;;;;;;;19.50;63.58;101641.78;1028950;28;674;-58
2022/05/18 04:15:27;;;;;;;;;;;;;;;19.49;63.87;101648.13;1029425;28;651;-59
2022/05/18 04:16:17;;;;;;;;;;;;;;;19.49;64.36;101645.44;1028808;28;665;-57
2022/05/18 04:17:08;;;;;;;;;;;;;;;19.49;63.49;101648.13;1028707;28;1676;-58
2022/05/18 04:17:59;;;;;;;;;;;;;;;19.51;63.90;101642.63;1028992;28;658;-58
2022/05/18 04:18:49;;;;;;;;;;;;;;;19.48;63.77;101638.31;1029045;28;611;-58
2022/05/18 04:19:39;;;;;;;;;;;;;;;19.49;64.42;101644.59;1029396;28;656;-58
2022/05/18 04:20:30;;;;;;;;;;;;;;;19.50;64.46;101643.63;1029281;28;641;-58
2022/05/18 04:21:20;;;;;;;;;;;;;;;19.50;63.84;101646.31;1033197;28;658;-58
2022/05/18 04:22:11;;;;;;;;;;;;;;;19.49;64.42;101648.13;1032523;28;1940;-58
2022/05/18 04:23:01;;;;;;;;;;;;;;;19.48;64.49;101654.53;1029616;28;690;-58
2022/05/18 04:23:52;;;;;;;;;;;;;;;19.49;63.86;101656.25;1028919;28;604;-58
2022/05/18 04:24:43;;;;;;;;;;;;;;;19.48;63.93;101654.53;1028799;28;795;-59
2022/05/18 04:25:34;;;;;;;;;;;;;;;19.49;64.34;101656.25;1029322;28;1671;-59
2022/05/18 04:26:24;;;;;;;;;;;;;;;19.50;63.43;101647.19;1032909;28;663;-59
2022/05/18 04:27:15;;;;;;;;;;;;;;;19.50;64.43;101659.84;1032928;28;686;-59
2022/05/18 04:28:07;;;;;;;;;;;;;;;19.51;64.08;101664.25;1034842;28;622;-59
2022/05/18 04:28:57;;;;;;;;;;;;;;;19.49;64.07;101661.66;1031682;28;741;-60
2022/05/18 04:29:48;;;;;;;;;;;;;;;19.50;63.94;101659.84;1030616;28;689;-59
2022/05/18 04:30:38;;;;;;;;;;;;;;;19.50;64.50;101657.13;1029848;28;722;-59
2022/05/18 04:31:29;;;;;;;;;;;;;;;19.49;63.91;101661.66;1029563;28;592;-59